Time;durP1;ratioP1;P1;durP2;ratioP2;P2;SDS_P1;SDS_P2;PMS_P1;PMS_P2;Temp;Humidity;BMP_temperature;BMP_pressure;BME280_temperature;BME280_humidity;BME280_pressure;Samples;Min_cycle;Max_cycle;Signal;HPM_P1;HPM_P2
2022/07/23 00:01:23;;;;;;;8.90;6.68;;;14.80;99.90;;;;;;4956041;28;20039;-63
2022/07/23 00:03:49;;;;;;;9.60;5.10;;;14.80;99.90;;;;;;4953107;28;20078;-64
2022/07/23 00:06:15;;;;;;;9.73;5.93;;;14.80;99.90;;;;;;4944028;28;20050;-64
2022/07/23 00:08:41;;;;;;;8.68;5.53;;;14.80;99.90;;;;;;4936395;28;20034;-65
2022/07/23 00:11:07;;;;;;;7.85;5.38;;;14.70;99.90;;;;;;4953541;28;20046;-64
2022/07/23 00:13:32;;;;;;;8.75;5.80;;;14.70;99.90;;;;;;4952060;28;20100;-64
2022/07/23 00:15:58;;;;;;;8.63;6.25;;;14.70;99.90;;;;;;4956247;28;20121;-64
2022/07/23 00:18:24;;;;;;;11.85;7.00;;;14.70;99.90;;;;;;4956945;28;20039;-65
2022/07/23 00:20:50;;;;;;;10.25;6.53;;;14.70;99.90;;;;;;4954226;28;20206;-65
2022/07/23 00:23:16;;;;;;;9.90;6.03;;;14.70;99.90;;;;;;4957214;28;20053;-64
2022/07/23 00:25:42;;;;;;;8.23;5.90;;;14.80;99.90;;;;;;4958054;28;20062;-64
2022/07/23 00:28:08;;;;;;;6.93;4.82;;;14.80;99.90;;;;;;4952061;28;20093;-65
2022/07/23 00:30:34;;;;;;;7.70;4.50;;;14.80;99.90;;;;;;4957570;28;20242;-65
2022/07/23 00:33:02;;;;;;;11.48;6.18;;;14.80;99.90;;;;;;4953289;28;20517;-64
2022/07/23 00:35:31;;;;;;;7.07;4.35;;;14.80;99.90;;;;;;4946804;28;20039;-64
2022/07/23 00:37:58;;;;;;;7.00;4.78;;;14.70;99.90;;;;;;4948325;28;20046;-64
2022/07/23 00:40:24;;;;;;;6.38;4.65;;;14.60;99.90;;;;;;4954930;28;20035;-65
2022/07/23 00:42:50;;;;;;;8.30;5.72;;;14.60;99.90;;;;;;4957929;28;20085;-65
2022/07/23 00:45:16;;;;;;;11.15;5.70;;;14.50;99.90;;;;;;4954756;28;20543;-65
2022/07/23 00:47:42;;;;;;;8.40;6.47;;;14.50;99.90;;;;;;4955641;28;20038;-65
2022/07/23 00:50:09;;;;;;;8.48;5.70;;;14.50;99.90;;;;;;4959046;28;20035;-64
2022/07/23 00:52:36;;;;;;;8.35;5.75;;;14.40;99.90;;;;;;4953824;28;20035;-65
2022/07/23 00:55:04;;;;;;;9.60;5.20;;;14.40;99.90;;;;;;4951473;28;20062;-65
2022/07/23 00:57:29;;;;;;;8.40;4.47;;;14.40;99.90;;;;;;4958215;28;20066;-65
2022/07/23 00:59:57;;;;;;;7.43;5.53;;;14.30;99.90;;;;;;4960266;28;20039;-65
2022/07/23 01:02:25;;;;;;;9.30;5.55;;;14.30;99.90;;;;;;4963489;28;20047;-65
2022/07/23 01:04:51;;;;;;;7.25;4.65;;;14.10;99.90;;;;;;4952092;28;20054;-65
2022/07/23 01:07:19;;;;;;;9.65;5.97;;;14.20;99.90;;;;;;4950632;28;20051;-65
2022/07/23 01:09:45;;;;;;;7.35;5.38;;;14.20;99.90;;;;;;4952231;28;20038;-64
2022/07/23 01:12:11;;;;;;;9.60;5.47;;;14.20;99.90;;;;;;4951101;28;20486;-65
2022/07/23 01:14:37;;;;;;;9.45;5.30;;;14.20;99.90;;;;;;4957676;28;20413;-65
2022/07/23 01:17:03;;;;;;;7.00;4.65;;;14.10;99.90;;;;;;4959530;28;20027;-65
2022/07/23 01:19:29;;;;;;;7.88;4.60;;;14.10;99.90;;;;;;4954911;28;20400;-64
2022/07/23 01:21:57;;;;;;;5.80;3.95;;;14.10;99.90;;;;;;4941404;28;20043;-64
2022/07/23 01:24:23;;;;;;;6.10;4.70;;;14.00;99.90;;;;;;4950944;28;20516;-64
2022/07/23 01:26:49;;;;;;;5.25;4.35;;;14.00;99.90;;;;;;4954980;28;20043;-64
2022/07/23 01:29:16;;;;;;;8.77;5.10;;;14.00;99.90;;;;;;4941365;28;20051;-65
2022/07/23 01:31:43;;;;;;;7.93;4.80;;;14.00;99.90;;;;;;4951125;28;20047;-65
2022/07/23 01:34:09;;;;;;;7.70;5.57;;;14.00;99.90;;;;;;4960110;28;20545;-65
2022/07/23 01:36:35;;;;;;;9.18;4.70;;;13.90;99.90;;;;;;4936029;28;20118;-64
2022/07/23 01:39:01;;;;;;;6.70;5.13;;;13.90;99.90;;;;;;4941354;28;20246;-65
2022/07/23 01:41:27;;;;;;;6.88;4.85;;;13.90;99.90;;;;;;4950823;28;20129;-65
2022/07/23 01:43:52;;;;;;;8.27;4.45;;;13.80;99.90;;;;;;4964923;28;20046;-65
2022/07/23 01:46:18;;;;;;;5.40;3.58;;;13.80;99.90;;;;;;4936322;28;20075;-65
2022/07/23 01:48:44;;;;;;;6.43;5.40;;;13.80;99.90;;;;;;4963374;28;20082;-65
2022/07/23 01:51:10;;;;;;;7.18;4.63;;;13.80;99.90;;;;;;4966315;28;20714;-65
2022/07/23 01:53:35;;;;;;;6.85;5.20;;;13.70;99.90;;;;;;4942761;28;20077;-65
2022/07/23 01:56:01;;;;;;;7.32;4.82;;;13.70;99.90;;;;;;4952331;28;20212;-65
2022/07/23 01:58:27;;;;;;;6.75;4.72;;;13.60;99.90;;;;;;4958901;28;20176;-65
2022/07/23 02:00:54;;;;;;;7.72;4.63;;;13.60;99.90;;;;;;4953108;28;20193;-65
2022/07/23 02:03:20;;;;;;;7.40;5.00;;;13.60;99.90;;;;;;4953313;28;20053;-65
2022/07/23 02:05:46;;;;;;;8.98;4.50;;;13.60;99.90;;;;;;4933147;28;20421;-65
2022/07/23 02:08:12;;;;;;;6.57;4.60;;;13.50;99.90;;;;;;4957324;28;20133;-64
2022/07/23 02:10:38;;;;;;;7.55;4.35;;;13.50;99.90;;;;;;4953102;28;20451;-64
2022/07/23 02:13:03;;;;;;;7.05;4.18;;;13.50;99.90;;;;;;4950222;28;20109;-65
2022/07/23 02:15:29;;;;;;;9.13;4.10;;;13.50;99.90;;;;;;4958202;28;20126;-65
2022/07/23 02:17:55;;;;;;;6.00;4.10;;;13.50;99.90;;;;;;4955552;28;20051;-64
2022/07/23 02:20:22;;;;;;;7.95;4.35;;;13.40;99.90;;;;;;4952021;28;20042;-65
2022/07/23 02:22:48;;;;;;;6.35;4.60;;;13.40;99.90;;;;;;4957699;28;20133;-65
2022/07/23 02:25:14;;;;;;;8.25;4.72;;;13.30;99.90;;;;;;4960996;28;20366;-64
2022/07/23 02:27:40;;;;;;;7.88;4.80;;;13.30;99.90;;;;;;4956540;28;20535;-65
2022/07/23 02:30:06;;;;;;;6.18;5.25;;;13.30;99.90;;;;;;4956317;28;20050;-65
2022/07/23 02:32:32;;;;;;;7.60;5.28;;;13.30;99.90;;;;;;4959749;28;20043;-65
2022/07/23 02:34:57;;;;;;;6.32;5.10;;;13.30;99.90;;;;;;4958173;28;20550;-64
2022/07/23 02:37:23;;;;;;;8.00;5.88;;;13.30;99.90;;;;;;4951594;28;20061;-64
2022/07/23 02:39:49;;;;;;;8.38;4.95;;;13.20;99.90;;;;;;4955270;28;20034;-65
2022/07/23 02:42:15;;;;;;;6.22;4.40;;;13.20;99.90;;;;;;4974290;28;20054;-65
2022/07/23 02:44:41;;;;;;;8.90;5.13;;;13.20;99.90;;;;;;4959240;28;20456;-64
2022/07/23 02:47:07;;;;;;;5.70;4.90;;;13.20;99.90;;;;;;4953803;28;20179;-65
2022/07/23 02:49:33;;;;;;;5.85;4.35;;;13.20;99.90;;;;;;4956700;28;20039;-64
2022/07/23 02:51:59;;;;;;;6.07;4.57;;;13.20;99.90;;;;;;4940188;28;20467;-65
2022/07/23 02:54:24;;;;;;;7.30;5.20;;;13.20;99.90;;;;;;4946131;28;20050;-64
2022/07/23 02:56:51;;;;;;;7.00;5.05;;;13.20;99.90;;;;;;4931334;28;20043;-64
2022/07/23 02:59:17;;;;;;;6.78;5.15;;;13.10;99.90;;;;;;4960724;28;20061;-64
2022/07/23 03:01:43;;;;;;;6.55;5.10;;;13.10;99.90;;;;;;4960296;28;20046;-65
2022/07/23 03:04:08;;;;;;;9.65;4.70;;;13.10;99.90;;;;;;4957750;28;20043;-65
2022/07/23 03:06:34;;;;;;;7.20;4.82;;;13.10;99.90;;;;;;4950417;28;20062;-64
2022/07/23 03:09:00;;;;;;;7.75;4.68;;;13.10;99.90;;;;;;4954289;28;20057;-64
2022/07/23 03:11:25;;;;;;;7.45;4.00;;;13.10;99.90;;;;;;4970215;28;20050;-64
2022/07/23 03:13:51;;;;;;;6.20;4.65;;;13.10;99.90;;;;;;4965167;28;20043;-62
2022/07/23 03:16:17;;;;;;;5.68;4.63;;;13.00;99.90;;;;;;4953604;28;20104;-63
2022/07/23 03:18:42;;;;;;;6.68;4.78;;;13.00;99.90;;;;;;4955982;28;20043;-63
2022/07/23 03:21:08;;;;;;;8.05;5.38;;;13.30;99.90;;;;;;4931001;28;20117;-63
2022/07/23 03:23:34;;;;;;;8.43;5.03;;;13.00;99.90;;;;;;4937340;28;20054;-64
2022/07/23 03:26:00;;;;;;;10.13;5.78;;;13.00;99.90;;;;;;4975400;28;20038;-64
2022/07/23 03:28:26;;;;;;;5.78;4.68;;;13.00;99.90;;;;;;4965260;28;20039;-64
2022/07/23 03:30:51;;;;;;;6.00;4.65;;;13.00;99.90;;;;;;4965387;28;20540;-64
2022/07/23 03:33:18;;;;;;;8.52;5.70;;;13.00;99.90;;;;;;4965424;28;20042;-64
2022/07/23 03:35:45;;;;;;;8.93;5.60;;;13.00;99.90;;;;;;4955526;28;20136;-64
2022/07/23 03:38:11;;;;;;;9.07;4.30;;;12.90;99.90;;;;;;4959440;28;21573;-63
2022/07/23 03:40:37;;;;;;;4.72;3.45;;;12.90;99.90;;;;;;4940366;28;20122;-64
2022/07/23 03:43:03;;;;;;;7.55;5.32;;;12.90;99.90;;;;;;4971348;28;20486;-66
2022/07/23 03:45:29;;;;;;;7.18;5.07;;;12.90;99.90;;;;;;4962554;28;20038;-64
2022/07/23 03:47:55;;;;;;;9.43;5.60;;;12.90;99.90;;;;;;4959312;28;20049;-64
2022/07/23 03:50:21;;;;;;;7.25;5.20;;;12.90;99.90;;;;;;4943577;28;20047;-64
2022/07/23 03:52:47;;;;;;;6.70;4.40;;;12.90;99.90;;;;;;4956963;28;20039;-64
2022/07/23 03:55:13;;;;;;;6.90;5.72;;;12.80;99.90;;;;;;4964777;28;20126;-65
2022/07/23 03:57:41;;;;;;;7.10;5.20;;;12.80;99.90;;;;;;4958495;28;20133;-64
2022/07/23 04:00:09;;;;;;;7.05;5.45;;;12.80;99.90;;;;;;4963245;28;20035;-65
2022/07/23 04:02:36;;;;;;;6.38;4.85;;;12.80;99.90;;;;;;4955713;28;20508;-64
2022/07/23 04:05:02;;;;;;;5.57;4.50;;;12.80;99.90;;;;;;4958334;28;20073;-64
2022/07/23 04:07:28;;;;;;;8.95;5.57;;;12.80;99.90;;;;;;4961616;28;20090;-65
2022/07/23 04:09:53;;;;;;;7.45;5.38;;;12.80;99.90;;;;;;4968358;28;20442;-64
2022/07/23 04:12:19;;;;;;;7.70;5.38;;;12.90;99.90;;;;;;4941176;28;20127;-63
2022/07/23 04:14:45;;;;;;;7.15;5.40;;;12.90;99.90;;;;;;4970474;28;20082;-65
2022/07/23 04:17:11;;;;;;;5.72;4.90;;;12.90;99.90;;;;;;4958153;28;20375;-64
2022/07/23 04:19:41;;;;;;;6.10;4.65;;;12.90;99.90;;;;;;4960738;23;20043;-52
2022/07/23 04:22:07;;;;;;;6.68;4.00;;;13.00;99.90;;;;;;4941133;28;20035;-47
2022/07/23 04:24:33;;;;;;;5.63;4.20;;;13.00;99.90;;;;;;4947952;28;20441;-51
2022/07/23 04:26:58;;;;;;;10.02;4.50;;;13.00;99.90;;;;;;4938547;28;20105;-50
2022/07/23 04:29:24;;;;;;;7.22;4.90;;;13.00;99.90;;;;;;4936380;28;20035;-51
2022/07/23 04:31:50;;;;;;;7.88;4.32;;;13.00;99.90;;;;;;4942386;28;20126;-48
2022/07/23 04:34:16;;;;;;;6.57;4.47;;;13.00;99.90;;;;;;4958022;28;20050;-49
2022/07/23 04:36:42;;;;;;;7.68;4.90;;;13.00;99.90;;;;;;4928350;28;20470;-50
2022/07/23 04:39:07;;;;;;;5.45;4.53;;;13.00;99.90;;;;;;4944855;28;20066;-49
2022/07/23 04:41:34;;;;;;;5.88;4.47;;;13.10;99.90;;;;;;4952323;28;20288;-51
2022/07/23 04:44:00;;;;;;;13.10;5.93;;;13.10;99.90;;;;;;4967402;28;20124;-49
2022/07/23 04:46:27;;;;;;;7.50;4.88;;;13.10;99.90;;;;;;4939943;28;20043;-51
2022/07/23 04:48:53;;;;;;;7.30;4.32;;;13.10;99.90;;;;;;4936889;28;20449;-55
2022/07/23 04:51:19;;;;;;;4.90;4.22;;;13.10;99.90;;;;;;4936109;28;20534;-54
2022/07/23 04:53:45;;;;;;;7.30;4.28;;;13.10;99.90;;;;;;4969890;28;20042;-54
2022/07/23 04:56:11;;;;;;;6.32;4.68;;;13.10;99.90;;;;;;4920253;28;20290;-54
2022/07/23 04:58:36;;;;;;;8.57;5.55;;;13.10;99.90;;;;;;4949475;28;20047;-55
2022/07/23 05:01:02;;;;;;;6.38;4.05;;;13.20;99.90;;;;;;4954466;28;20043;-53
2022/07/23 05:03:28;;;;;;;6.07;4.47;;;13.20;99.90;;;;;;4944123;28;20035;-56
2022/07/23 05:05:54;;;;;;;5.50;4.30;;;13.30;99.90;;;;;;4942511;28;20040;-55
2022/07/23 05:08:20;;;;;;;7.43;4.93;;;13.40;99.90;;;;;;4948545;28;20054;-55
2022/07/23 05:10:46;;;;;;;10.07;4.38;;;13.50;99.90;;;;;;4954878;28;21127;-55
2022/07/23 05:13:11;;;;;;;7.40;3.75;;;13.50;99.90;;;;;;5026104;28;20112;-55
2022/07/23 05:15:37;;;;;;;6.60;4.07;;;13.60;99.90;;;;;;4945986;28;20070;-54
2022/07/23 05:18:03;;;;;;;6.97;4.03;;;13.70;99.90;;;;;;4934764;28;20751;-54
2022/07/23 05:20:29;;;;;;;8.43;4.88;;;13.70;99.90;;;;;;4939610;28;20054;-56
2022/07/23 05:22:54;;;;;;;6.80;5.00;;;13.80;99.90;;;;;;4937216;28;20043;-55
2022/07/23 05:25:20;;;;;;;8.13;4.15;;;13.80;99.90;;;;;;4935821;28;21069;-53
2022/07/23 05:27:46;;;;;;;6.47;3.80;;;13.90;99.90;;;;;;4955111;28;20118;-55
2022/07/23 05:30:12;;;;;;;7.40;4.78;;;13.90;99.90;;;;;;4940529;28;20097;-53
2022/07/23 05:32:37;;;;;;;8.43;5.07;;;14.00;99.90;;;;;;4929694;28;20048;-54
2022/07/23 05:35:07;;;;;;;7.72;5.53;;;14.00;99.90;;;;;;4913915;28;20093;-53
2022/07/23 05:37:33;;;;;;;7.85;4.15;;;14.00;99.90;;;;;;4931367;28;20047;-55
2022/07/23 05:40:07;;;;;;;5.72;3.90;;;14.00;99.90;;;;;;4936021;28;20383;-56
2022/07/23 05:42:41;;;;;;;9.40;4.82;;;14.00;99.90;;;;;;4930622;28;20023;-54
2022/07/23 05:45:07;;;;;;;6.72;4.00;;;14.00;99.90;;;;;;4949921;28;20050;-54
2022/07/23 05:47:45;;;;;;;9.15;5.60;;;14.10;99.90;;;;;;4949636;28;20035;-55
2022/07/23 05:50:12;;;;;;;5.88;4.68;;;14.20;99.90;;;;;;4950247;28;20129;-55
2022/07/23 05:52:38;;;;;;;6.53;4.82;;;14.20;99.90;;;;;;4934091;28;20101;-54
2022/07/23 05:55:05;;;;;;;8.68;4.45;;;14.30;99.90;;;;;;4933031;28;20127;-54
2022/07/23 05:57:31;;;;;;;4.55;3.90;;;14.30;99.90;;;;;;4964790;28;20039;-56
2022/07/23 05:59:56;;;;;;;8.55;4.68;;;14.30;99.90;;;;;;4950336;28;20035;-55
2022/07/23 06:02:22;;;;;;;6.35;4.35;;;14.40;99.90;;;;;;4930892;28;20542;-54
2022/07/23 06:04:48;;;;;;;6.93;4.68;;;14.40;99.90;;;;;;4923283;28;20054;-55
2022/07/23 06:07:13;;;;;;;6.57;3.80;;;14.60;99.90;;;;;;4953297;28;20498;-57
2022/07/23 06:09:39;;;;;;;4.30;3.30;;;14.70;99.90;;;;;;4944276;28;20055;-55
2022/07/23 06:12:05;;;;;;;6.80;2.83;;;14.80;99.90;;;;;;4928290;28;20058;-55
2022/07/23 06:14:34;;;;;;;4.85;2.13;;;15.00;99.90;;;;;;4952122;28;20120;-57
2022/07/23 06:17:00;;;;;;;3.78;1.80;;;15.10;99.90;;;;;;4947764;28;20082;-56
2022/07/23 06:19:26;;;;;;;5.25;1.77;;;15.30;99.90;;;;;;4931240;28;20054;-56
2022/07/23 06:21:54;;;;;;;4.72;2.00;;;15.40;99.90;;;;;;4926647;28;20510;-56
2022/07/23 06:24:20;;;;;;;3.45;1.92;;;15.60;99.90;;;;;;4927112;28;20130;-50
2022/07/23 06:26:46;;;;;;;5.03;1.40;;;15.70;99.90;;;;;;4912740;28;20520;-55
2022/07/23 06:29:11;;;;;;;1.83;1.10;;;15.80;99.90;;;;;;4917737;28;20040;-51
2022/07/23 06:31:37;;;;;;;2.78;0.90;;;15.90;99.90;;;;;;4924600;28;20041;-52
2022/07/23 06:34:03;;;;;;;2.38;0.93;;;16.00;99.90;;;;;;4930150;28;20127;-53
2022/07/23 06:36:29;;;;;;;1.90;0.90;;;16.10;99.90;;;;;;4926380;28;20153;-53
2022/07/23 06:38:55;;;;;;;2.15;0.82;;;16.20;99.90;;;;;;4930425;28;20560;-53
2022/07/23 06:41:22;;;;;;;2.85;0.90;;;16.30;99.90;;;;;;4922693;28;20043;-53
2022/07/23 06:43:48;;;;;;;1.33;0.77;;;16.40;99.90;;;;;;4941324;28;20465;-54
2022/07/23 06:46:14;;;;;;;4.05;1.00;;;16.40;99.90;;;;;;4929552;28;20069;-54
2022/07/23 06:48:40;;;;;;;3.15;1.17;;;16.60;99.90;;;;;;4964613;28;20039;-57
2022/07/23 06:51:05;;;;;;;2.80;0.82;;;16.70;99.90;;;;;;4937192;28;20043;-54
2022/07/23 06:53:31;;;;;;;2.30;0.80;;;16.70;99.90;;;;;;4934688;28;20047;-56
2022/07/23 06:55:57;;;;;;;2.72;0.90;;;16.80;99.90;;;;;;4955494;28;20059;-55
2022/07/23 06:58:22;;;;;;;1.83;0.65;;;16.90;99.90;;;;;;4942941;28;20105;-53
2022/07/23 07:00:48;;;;;;;1.48;0.68;;;17.00;99.90;;;;;;4956865;28;20317;-54
2022/07/23 07:03:16;;;;;;;2.65;0.75;;;17.00;99.90;;;;;;4985136;28;20236;-54
2022/07/23 07:05:41;;;;;;;1.92;0.55;;;17.20;99.90;;;;;;4930234;28;20126;-53
2022/07/23 07:08:07;;;;;;;2.60;0.80;;;17.20;99.90;;;;;;4931071;28;20474;-57
2022/07/23 07:10:33;;;;;;;2.65;0.70;;;17.40;99.90;;;;;;4940992;28;20347;-54
2022/07/23 07:12:58;;;;;;;2.33;0.60;;;17.40;99.90;;;;;;4939388;28;20047;-57
2022/07/23 07:15:24;;;;;;;1.63;0.55;;;17.50;99.90;;;;;;4956676;28;20126;-56
2022/07/23 07:17:50;;;;;;;1.38;0.55;;;17.50;99.90;;;;;;4944836;28;20097;-59
2022/07/23 07:20:16;;;;;;;1.15;0.60;;;17.50;99.90;;;;;;4977506;28;20043;-58
2022/07/23 07:22:42;;;;;;;2.42;0.60;;;17.40;99.90;;;;;;4943363;28;20031;-54
2022/07/23 07:25:08;;;;;;;1.35;0.65;;;17.40;99.90;;;;;;4944763;28;20098;-59
2022/07/23 07:27:34;;;;;;;2.08;0.70;;;17.50;99.90;;;;;;4937210;28;20058;-55
2022/07/23 07:30:00;;;;;;;2.63;0.65;;;17.50;99.90;;;;;;4924907;28;20497;-54
2022/07/23 07:32:25;;;;;;;3.70;0.80;;;17.50;99.90;;;;;;4966688;28;20188;-59
2022/07/23 07:34:51;;;;;;;2.63;0.90;;;17.60;99.90;;;;;;4943673;28;20041;-57
2022/07/23 07:37:17;;;;;;;1.63;0.75;;;17.60;99.90;;;;;;4929995;28;20046;-59
2022/07/23 07:39:43;;;;;;;3.90;0.80;;;17.60;99.90;;;;;;4934686;28;20035;-59
2022/07/23 07:42:08;;;;;;;2.22;0.68;;;17.60;99.90;;;;;;4935446;28;20089;-58
2022/07/23 07:44:34;;;;;;;2.13;0.60;;;17.60;99.90;;;;;;4938289;28;20173;-58
2022/07/23 07:47:00;;;;;;;2.83;0.88;;;17.70;99.90;;;;;;4947221;28;20050;-56
2022/07/23 07:49:25;;;;;;;2.05;0.70;;;17.70;99.90;;;;;;4947431;28;20097;-57
2022/07/23 07:51:51;;;;;;;2.20;0.98;;;17.80;99.90;;;;;;4951189;28;20033;-57
2022/07/23 07:54:17;;;;;;;12.38;1.58;;;17.90;99.90;;;;;;4947158;28;20492;-56
2022/07/23 07:56:43;;;;;;;0.75;0.50;;;18.00;99.90;;;;;;4916516;28;20196;-56
2022/07/23 07:59:08;;;;;;;1.77;0.50;;;17.90;99.90;;;;;;4935656;28;20039;-53
2022/07/23 08:01:34;;;;;;;1.90;0.77;;;17.90;99.90;;;;;;4977209;28;20409;-53
2022/07/23 08:04:00;;;;;;;1.52;0.70;;;17.90;99.90;;;;;;4942943;28;20051;-54
2022/07/23 08:06:25;;;;;;;3.10;0.73;;;17.80;99.90;;;;;;4929455;28;20074;-57
2022/07/23 08:08:51;;;;;;;1.20;0.70;;;17.80;99.90;;;;;;4935122;28;20043;-55
2022/07/23 08:11:17;;;;;;;1.90;0.80;;;17.80;99.90;;;;;;4925639;28;20050;-56
2022/07/23 08:13:44;;;;;;;1.58;0.60;;;17.80;99.90;;;;;;4952908;28;20041;-55
2022/07/23 08:16:10;;;;;;;3.20;0.70;;;17.90;99.90;;;;;;4935948;28;20133;-56
2022/07/23 08:18:36;;;;;;;2.92;0.60;;;17.90;99.90;;;;;;4934849;28;20081;-56
2022/07/23 08:21:04;;;;;;;1.55;1.05;;;18.00;99.90;;;;;;4909057;28;20039;-55
2022/07/23 08:23:31;;;;;;;1.65;0.70;;;18.10;99.90;;;;;;4930676;28;20044;-53
2022/07/23 08:25:57;;;;;;;4.43;1.00;;;18.00;99.90;;;;;;4946218;28;20047;-59
2022/07/23 08:28:23;;;;;;;3.10;0.80;;;18.00;99.90;;;;;;4957283;28;20043;-57
2022/07/23 08:30:49;;;;;;;2.00;0.90;;;17.80;99.90;;;;;;4959198;28;20051;-56
2022/07/23 08:33:16;;;;;;;2.35;0.80;;;17.80;99.90;;;;;;4947598;28;20054;-59
2022/07/23 08:35:50;;;;;;;4.85;0.90;;;17.80;99.90;;;;;;4956116;28;20043;-56
2022/07/23 08:38:17;;;;;;;2.30;0.80;;;17.80;99.90;;;;;;4936772;28;20041;-57
2022/07/23 08:40:49;;;;;;;2.90;0.75;;;17.90;99.90;;;;;;4939630;28;20580;-56
2022/07/23 08:43:17;;;;;;;2.05;0.73;;;17.90;99.90;;;;;;4928623;28;20105;-57
2022/07/23 08:45:46;;;;;;;3.17;1.02;;;18.00;99.90;;;;;;4942667;28;20040;-57
2022/07/23 08:48:23;;;;;;;2.22;0.80;;;17.90;99.90;;;;;;4926774;28;20441;-52
2022/07/23 08:50:54;;;;;;;2.90;0.93;;;17.80;99.90;;;;;;4928256;28;20695;-53
2022/07/23 08:53:21;;;;;;;3.33;0.95;;;17.80;99.90;;;;;;4928460;28;20058;-53
2022/07/23 08:55:52;;;;;;;1.50;0.80;;;17.80;99.90;;;;;;4941848;28;20061;-56
2022/07/23 08:58:18;;;;;;;4.38;0.90;;;17.80;99.90;;;;;;4957601;28;20043;-57
2022/07/23 09:00:45;;;;;;;1.42;0.95;;;17.80;99.90;;;;;;4932454;28;20085;-56
2022/07/23 09:03:19;;;;;;;2.88;0.75;;;17.90;99.90;;;;;;4939759;28;20081;-55
2022/07/23 09:05:46;;;;;;;2.15;0.82;;;18.00;99.90;;;;;;4931511;28;20050;-55
2022/07/23 09:08:21;;;;;;;2.20;0.82;;;18.10;99.90;;;;;;5006111;28;20114;-54
2022/07/23 09:10:54;;;;;;;1.83;0.68;;;18.20;99.90;;;;;;4936679;28;20092;-53
2022/07/23 09:13:39;;;;;;;1.55;0.70;;;18.30;99.90;;;;;;4926024;28;20113;-56
2022/07/23 09:16:18;;;;;;;1.92;0.73;;;18.50;99.90;;;;;;4931089;28;20397;-54
2022/07/23 09:18:47;;;;;;;5.78;1.65;;;18.80;99.90;;;;;;4957279;28;20043;-56
2022/07/23 09:21:16;;;;;;;2.03;0.80;;;19.00;99.90;;;;;;4970106;28;20402;-54
2022/07/23 09:24:00;;;;;;;2.78;0.82;;;19.20;99.90;;;;;;4958656;28;20047;-53
2022/07/23 09:26:44;;;;;;;2.10;0.90;;;19.10;99.90;;;;;;4958527;28;20519;-54
2022/07/23 09:29:25;;;;;;;2.65;1.00;;;19.00;99.90;;;;;;4955076;28;20177;-57
2022/07/23 09:32:02;;;;;;;1.05;0.70;;;18.80;99.90;;;;;;4939933;28;20072;-57
2022/07/23 09:34:30;;;;;;;3.50;1.02;;;18.60;99.90;;;;;;4937657;28;20167;-57
2022/07/23 09:36:58;;;;;;;2.45;0.90;;;18.70;99.90;;;;;;4952106;28;20506;-53
2022/07/23 09:39:32;;;;;;;2.83;0.90;;;18.70;99.90;;;;;;4961911;28;20043;-56
2022/07/23 09:41:58;;;;;;;;;;;18.70;99.90;;;;;;4944750;28;20126;-56
2022/07/23 09:44:24;;;;;;;2.63;0.90;;;18.60;99.90;;;;;;4954650;28;19922;-56
2022/07/23 09:46:57;;;;;;;1.05;0.75;;;18.60;99.90;;;;;;4936045;28;20105;-57
2022/07/23 09:49:23;;;;;;;0.82;0.65;;;18.70;99.90;;;;;;4943068;28;20425;-54
2022/07/23 09:51:57;;;;;;;3.10;0.90;;;18.90;99.90;;;;;;4942825;28;20058;-56
2022/07/23 09:54:31;;;;;;;5.75;1.00;;;19.00;99.90;;;;;;4923056;28;20054;-57
2022/07/23 09:56:59;;;;;;;2.42;1.20;;;18.80;99.90;;;;;;4936586;28;20158;-57
2022/07/23 09:59:32;;;;;;;2.03;0.80;;;18.70;99.90;;;;;;4922880;28;20460;-57
2022/07/23 10:01:59;;;;;;;2.50;0.98;;;18.80;99.90;;;;;;4929560;28;20094;-57
2022/07/23 10:04:27;;;;;;;3.00;1.00;;;18.80;99.90;;;;;;4932392;28;20054;-57
2022/07/23 10:06:55;;;;;;;3.55;1.00;;;18.70;99.90;;;;;;4929459;28;20510;-55
2022/07/23 10:09:25;;;;;;;2.25;1.25;;;18.70;99.90;;;;;;4940675;28;20139;-54
2022/07/23 10:11:55;;;;;;;2.28;1.00;;;18.50;99.90;;;;;;4932495;28;20047;-57
2022/07/23 10:14:21;;;;;;;3.33;1.08;;;18.60;99.90;;;;;;4953862;28;20054;-57
2022/07/23 10:16:48;;;;;;;2.85;1.10;;;18.70;99.90;;;;;;4945329;28;20039;-56
2022/07/23 10:19:14;;;;;;;1.55;1.17;;;18.90;99.90;;;;;;4961622;23;20047;-53
2022/07/23 10:21:50;;;;;;;6.18;1.45;;;19.20;99.90;;;;;;4948480;28;20046;-55
2022/07/23 10:24:53;;;;;;;2.63;1.42;;;19.30;99.90;;;;;;4946017;28;20183;-56
2022/07/23 10:27:42;;;;;;;1.73;1.10;;;19.50;99.90;;;;;;4944193;28;20078;-55
2022/07/23 10:30:15;;;;;;;1.92;1.05;;;19.60;99.90;;;;;;4955401;28;20057;-54
2022/07/23 10:33:03;;;;;;;4.88;1.40;;;19.80;99.90;;;;;;4966368;28;20042;-55
2022/07/23 10:36:02;;;;;;;2.55;1.20;;;19.80;99.90;;;;;;4961950;28;20123;-55
2022/07/23 10:38:41;;;;;;;3.10;1.20;;;19.80;99.90;;;;;;4982237;28;20141;-56
2022/07/23 10:41:07;;;;;;;2.15;1.23;;;19.50;99.90;;;;;;4963136;28;20498;-56
2022/07/23 10:43:33;;;;;;;2.10;0.95;;;19.50;99.90;;;;;;4994715;28;20055;-56
2022/07/23 10:49:23;;;;;;;2.72;1.55;;;19.70;99.90;;;;;;4948678;28;20480;-56
2022/07/23 10:52:13;;;;;;;2.47;1.33;;;19.90;99.90;;;;;;4984127;28;20035;-55
2022/07/23 10:54:44;;;;;;;4.10;1.50;;;19.50;99.90;;;;;;4973320;28;20053;-54
2022/07/23 10:57:12;;;;;;;2.67;1.00;;;19.30;99.90;;;;;;4985094;28;20039;-57
2022/07/23 11:00:09;;;;;;;3.85;1.23;;;19.50;99.90;;;;;;4963438;28;20053;-57
2022/07/23 11:02:36;;;;;;;3.35;1.40;;;20.00;99.90;;;;;;4966314;28;20072;-57
2022/07/23 11:05:07;;;;;;;5.10;1.25;;;20.20;99.90;;;;;;4952361;28;20576;-56
2022/07/23 11:07:34;;;;;;;1.92;1.10;;;20.30;99.70;;;;;;4952808;28;20043;-53
2022/07/23 11:09:59;;;;;;;2.88;1.30;;;20.50;99.90;;;;;;4985001;28;20043;-55
2022/07/23 11:12:28;;;;;;;2.40;1.08;;;20.40;99.50;;;;;;4959264;28;20058;-54
2022/07/23 11:15:04;;;;;;;1.70;1.00;;;20.50;99.90;;;;;;4960235;28;20046;-56
2022/07/23 11:17:45;;;;;;;2.63;1.30;;;20.80;99.80;;;;;;4959266;28;20540;-55
2022/07/23 11:20:11;;;;;;;1.90;1.38;;;21.10;99.10;;;;;;4971266;28;20034;-54
2022/07/23 11:22:38;;;;;;;1.73;1.00;;;21.20;98.10;;;;;;4958131;28;20043;-55
2022/07/23 11:25:04;;;;;;;2.15;1.13;;;21.20;98.70;;;;;;4960952;28;20501;-55
2022/07/23 11:27:40;;;;;;;3.28;1.35;;;21.50;98.50;;;;;;4960896;28;20051;-57
2022/07/23 11:30:30;;;;;;;1.98;1.10;;;21.60;98.00;;;;;;4969712;28;20397;-56
2022/07/23 11:33:08;;;;;;;3.33;1.25;;;21.80;98.30;;;;;;4960824;28;20038;-57
2022/07/23 11:35:40;;;;;;;1.90;1.10;;;21.70;96.70;;;;;;4977287;28;20407;-57
2022/07/23 11:38:18;;;;;;;1.10;0.95;;;21.70;97.70;;;;;;4970141;28;20038;-55
2022/07/23 11:40:45;;;;;;;2.20;1.35;;;21.70;98.20;;;;;;5010526;28;20043;-55
2022/07/23 11:43:12;;;;;;;4.10;1.30;;;21.40;97.60;;;;;;4977412;28;20583;-56
2022/07/23 11:45:40;;;;;;;4.60;1.00;;;21.50;98.30;;;;;;4987497;28;20405;-57
2022/07/23 11:48:08;;;;;;;2.85;1.13;;;21.50;97.70;;;;;;4971806;28;20043;-55
2022/07/23 11:50:35;;;;;;;4.57;1.20;;;21.70;97.90;;;;;;4990600;28;20134;-55
2022/07/23 11:53:02;;;;;;;1.30;1.02;;;22.10;98.60;;;;;;4986802;28;20122;-55
2022/07/23 11:55:28;;;;;;;1.30;1.15;;;22.40;97.60;;;;;;4973429;28;20091;-56
2022/07/23 11:57:55;;;;;;;3.20;1.10;;;22.00;96.60;;;;;;4962599;28;20095;-53
2022/07/23 12:00:31;;;;;;;3.83;1.52;;;22.00;97.30;;;;;;4975539;28;20054;-56
2022/07/23 12:03:00;;;;;;;3.40;1.33;;;22.30;97.80;;;;;;4975609;28;20569;-52
2022/07/23 12:05:35;;;;;;;2.75;1.10;;;22.50;97.10;;;;;;4948668;28;20058;-55
2022/07/23 12:08:02;;;;;;;1.60;1.17;;;22.40;97.00;;;;;;4961257;28;20469;-55
2022/07/23 12:10:37;;;;;;;1.80;1.05;;;22.30;96.90;;;;;;4955270;28;20071;-53
2022/07/23 12:13:14;;;;;;;2.83;1.30;;;22.60;97.00;;;;;;4969792;28;20062;-55
2022/07/23 12:15:48;;;;;;;1.63;1.00;;;22.60;97.10;;;;;;4960293;28;21229;-53
2022/07/23 12:18:17;;;;;;;2.20;1.30;;;22.70;97.00;;;;;;4966508;28;20081;-56
2022/07/23 12:20:47;;;;;;;1.73;1.02;;;22.70;96.80;;;;;;4960137;28;20047;-56
2022/07/23 12:23:15;;;;;;;4.13;1.50;;;22.80;96.90;;;;;;4953517;28;20239;-56
2022/07/23 12:25:44;;;;;;;6.35;1.30;;;22.90;97.00;;;;;;4949151;28;20061;-55
2022/07/23 12:28:18;;;;;;;2.63;1.02;;;23.00;96.60;;;;;;4952771;28;20042;-56
2022/07/23 12:30:51;;;;;;;3.15;1.40;;;22.50;96.00;;;;;;4947725;28;20038;-56
2022/07/23 12:33:38;;;;;;;2.55;1.42;;;22.40;97.10;;;;;;4943355;28;20046;-56
2022/07/23 12:36:07;;;;;;;3.53;1.60;;;22.00;96.40;;;;;;4947016;28;20039;-57
2022/07/23 12:38:42;;;;;;;2.35;1.20;;;21.90;96.90;;;;;;4947487;28;20047;-61
2022/07/23 12:41:08;;;;;;;4.53;1.63;;;21.70;97.20;;;;;;4951628;28;20035;-62
2022/07/23 12:43:54;;;;;;;2.10;1.50;;;22.10;98.10;;;;;;4957728;28;20047;-62
2022/07/23 12:46:21;;;;;;;4.05;1.13;;;22.20;96.70;;;;;;4955739;28;20528;-62
2022/07/23 12:48:49;;;;;;;3.33;1.27;;;22.20;97.10;;;;;;4952184;28;20355;-61
2022/07/23 12:51:19;;;;;;;1.88;1.30;;;21.80;96.70;;;;;;4943917;28;20062;-62
2022/07/23 12:53:50;;;;;;;2.03;1.08;;;21.90;97.50;;;;;;4971617;28;20043;-62
2022/07/23 12:56:17;;;;;;;1.75;1.10;;;22.00;97.50;;;;;;4954023;28;20305;-61